Time;durP1;ratioP1;P1;durP2;ratioP2;P2;SDS_P1;SDS_P2;PMS_P1;PMS_P2;Temp;Humidity;BMP_temperature;BMP_pressure;BME280_temperature;BME280_humidity;BME280_pressure;Samples;Min_cycle;Max_cycle;Signal;HPM_P1;HPM_P2
2023/06/21 00:01:31;;;;;;;;;;;22.00;58.20;;;;;;6272329;28;19916;-72
2023/06/21 00:04:32;;;;;;;;;;;22.00;58.20;;;;;;6272298;28;20046;-72
2023/06/21 00:07:32;;;;;;;;;;;22.00;58.20;;;;;;6272315;28;20398;-71
2023/06/21 00:10:33;;;;;;;;;;;22.00;58.20;;;;;;6272326;28;19913;-71
2023/06/21 00:13:34;;;;;;;;;;;22.00;58.20;;;;;;6271651;28;19982;-72
2023/06/21 00:16:34;;;;;;;;;;;22.00;58.20;;;;;;6272288;28;19955;-72
2023/06/21 00:19:35;;;;;;;;;;;22.00;58.20;;;;;;6270994;28;19975;-71
2023/06/21 00:22:36;;;;;;;;;;;22.00;58.20;;;;;;6271768;28;19920;-72
2023/06/21 00:25:36;;;;;;;;;;;22.00;58.20;;;;;;6271592;28;19909;-71
2023/06/21 00:28:37;;;;;;;;;;;22.00;58.20;;;;;;6271642;28;19931;-71
2023/06/21 00:31:37;;;;;;;;;;;22.00;58.20;;;;;;6271897;28;19971;-71
2023/06/21 00:34:38;;;;;;;;;;;22.00;58.20;;;;;;6271450;28;20024;-71
2023/06/21 00:37:38;;;;;;;;;;;22.00;58.20;;;;;;6271722;28;20360;-71
2023/06/21 00:40:39;;;;;;;;;;;22.00;58.20;;;;;;6271498;28;19924;-72
2023/06/21 00:43:39;;;;;;;;;;;22.00;58.30;;;;;;6270951;28;19908;-71
2023/06/21 00:46:40;;;;;;;;;;;22.00;58.20;;;;;;6271386;28;19974;-71
2023/06/21 00:49:40;;;;;;;;;;;22.00;58.20;;;;;;6357292;22;19947;-72
2023/06/21 00:52:43;;;;;;;;;;;22.00;58.30;;;;;;6270610;28;19909;-72
2023/06/21 00:55:43;;;;;;;;;;;22.00;58.30;;;;;;6271408;28;19909;-72
2023/06/21 00:58:44;;;;;;;;;;;22.00;58.20;;;;;;6264412;28;19935;-72
2023/06/21 01:01:44;;;;;;;;;;;22.00;58.20;;;;;;6270660;28;19924;-72
2023/06/21 01:04:46;;;;;;;;;;;22.00;58.30;;;;;;6270753;28;19963;-71
2023/06/21 01:08:11;;;;;;;;;;;22.00;58.30;;;;;;6270684;28;19909;-72
2023/06/21 01:11:23;;;;;;;;;;;22.00;58.30;;;;;;6244079;28;19936;-72
2023/06/21 01:14:31;;;;;;;;;;;22.00;58.30;;;;;;6256606;28;20367;-72
2023/06/21 01:17:33;;;;;;;;;;;22.00;58.30;;;;;;6270761;28;19908;-72
2023/06/21 01:20:34;;;;;;;;;;;22.00;58.30;;;;;;6270334;28;20441;-72
2023/06/21 01:23:58;;;;;;;;;;;22.00;58.30;;;;;;6270556;28;19983;-72
2023/06/21 01:27:34;;;;;;;;;;;22.00;58.30;;;;;;6264388;28;19920;-72
2023/06/21 01:30:36;;;;;;;;;;;22.00;58.30;;;;;;6242246;28;20624;-72
2023/06/21 01:33:37;;;;;;;;;;;22.00;58.30;;;;;;6269202;28;20485;-72
2023/06/21 01:36:39;;;;;;;;;;;22.00;58.30;;;;;;6269554;28;19955;-72
2023/06/21 01:39:40;;;;;;;;;;;22.00;58.30;;;;;;6269325;28;19948;-72
2023/06/21 01:42:40;;;;;;;;;;;22.00;58.30;;;;;;6269815;28;19920;-72
2023/06/21 01:45:41;;;;;;;;;;;22.00;58.30;;;;;;6268345;28;20248;-71
2023/06/21 01:48:42;;;;;;;;;;;22.00;58.30;;;;;;6265809;28;19921;-71
2023/06/21 01:51:43;;;;;;;;;;;22.00;58.30;;;;;;6269491;28;19912;-72
2023/06/21 01:54:44;;;;;;;;;;;22.00;58.30;;;;;;6268074;28;20255;-72
2023/06/21 01:57:44;;;;;;;;;;;22.00;58.30;;;;;;6262449;28;19909;-72
2023/06/21 02:00:45;;;;;;;;;;;22.00;58.40;;;;;;6268518;28;19968;-71
2023/06/21 02:03:49;;;;;;;;;;;22.00;58.40;;;;;;6269313;28;20327;-72
2023/06/21 02:06:50;;;;;;;;;;;22.00;58.40;;;;;;6269388;28;19919;-72
2023/06/21 02:09:51;;;;;;;;;;;22.00;58.40;;;;;;6269399;28;19909;-72
2023/06/21 02:12:54;;;;;;;;;;;22.00;58.40;;;;;;6265965;28;19916;-72
2023/06/21 02:15:55;;;;;;;;;;;22.00;58.40;;;;;;6267644;28;19909;-72
2023/06/21 02:18:56;;;;;;;;;;;22.00;58.40;;;;;;6262801;28;19915;-72
2023/06/21 02:21:56;;;;;;;;;;;22.00;58.40;;;;;;6268954;28;19986;-72
2023/06/21 02:24:57;;;;;;;;;;;22.00;58.40;;;;;;6268493;28;19978;-72
2023/06/21 02:27:57;;;;;;;;;;;22.00;58.40;;;;;;6267840;28;19964;-71
2023/06/21 02:30:58;;;;;;;;;;;22.00;58.40;;;;;;6269196;28;20082;-72
2023/06/21 02:33:58;;;;;;;;;;;22.00;58.50;;;;;;6261578;28;19924;-72
2023/06/21 02:36:59;;;;;;;;;;;22.00;58.40;;;;;;6261527;28;19913;-71
2023/06/21 02:40:08;;;;;;;;;;;22.00;58.40;;;;;;6268753;28;20366;-72
2023/06/21 02:43:09;;;;;;;;;;;22.00;58.50;;;;;;6267179;28;19947;-72
2023/06/21 02:46:10;;;;;;;;;;;22.00;58.50;;;;;;6272535;28;19909;-72
2023/06/21 02:49:10;;;;;;;;;;;22.00;58.50;;;;;;6272244;28;19928;-71
2023/06/21 02:52:11;;;;;;;;;;;22.00;58.50;;;;;;6270516;28;19913;-72
2023/06/21 02:55:12;;;;;;;;;;;22.00;58.50;;;;;;6272679;28;19917;-72
2023/06/21 02:58:12;;;;;;;;;;;22.00;58.50;;;;;;6273150;28;20020;-72
2023/06/21 03:01:13;;;;;;;;;;;22.00;58.50;;;;;;6267026;28;19917;-71
2023/06/21 03:04:18;;;;;;;;;;;22.00;58.50;;;;;;6269667;28;20403;-71
2023/06/21 03:07:19;;;;;;;;;;;22.00;58.50;;;;;;6271842;28;20328;-72
2023/06/21 03:10:20;;;;;;;;;;;22.00;58.50;;;;;;6264982;28;19913;-72
2023/06/21 03:13:21;;;;;;;;;;;22.00;58.50;;;;;;6272363;28;19909;-72
2023/06/21 03:16:21;;;;;;;;;;;22.00;58.50;;;;;;6271857;28;20422;-72
2023/06/21 03:19:22;;;;;;;;;;;22.00;58.50;;;;;;6268375;28;19962;-72
2023/06/21 03:22:22;;;;;;;;;;;22.00;58.50;;;;;;6273065;28;19920;-73
2023/06/21 03:25:23;;;;;;;;;;;22.00;58.50;;;;;;6269381;28;20012;-72
2023/06/21 03:28:24;;;;;;;;;;;22.00;58.50;;;;;;6272622;28;19935;-72
2023/06/21 03:31:25;;;;;;;;;;;22.00;58.50;;;;;;6271366;28;20058;-71
2023/06/21 03:34:25;;;;;;;;;;;22.00;58.50;;;;;;6271554;28;19909;-72
2023/06/21 03:37:26;;;;;;;;;;;22.00;58.50;;;;;;6272430;28;19995;-72
2023/06/21 03:40:26;;;;;;;;;;;22.00;58.50;;;;;;6272380;28;19909;-72
2023/06/21 03:43:27;;;;;;;;;;;22.00;58.50;;;;;;6266422;28;19919;-72
2023/06/21 03:46:27;;;;;;;;;;;22.00;58.50;;;;;;6272205;28;20000;-72
2023/06/21 03:49:28;;;;;;;;;;;22.00;58.50;;;;;;6265820;28;19928;-72
2023/06/21 03:52:29;;;;;;;;;;;22.00;58.50;;;;;;6272940;28;19966;-71
2023/06/21 03:55:30;;;;;;;;;;;22.00;58.50;;;;;;6267942;28;20240;-72
2023/06/21 03:58:30;;;;;;;;;;;22.00;58.50;;;;;;6272232;28;19974;-71
2023/06/21 04:01:31;;;;;;;;;;;22.00;58.50;;;;;;6272397;28;19963;-72
2023/06/21 04:04:31;;;;;;;;;;;22.00;58.50;;;;;;6272155;28;19913;-72
2023/06/21 04:07:32;;;;;;;;;;;22.00;58.50;;;;;;6272590;28;19916;-72
2023/06/21 04:10:33;;;;;;;;;;;22.00;58.50;;;;;;6272099;28;20355;-72
2023/06/21 04:13:35;;;;;;;;;;;22.00;58.60;;;;;;6272002;28;20341;-71
2023/06/21 04:16:35;;;;;;;;;;;22.00;58.50;;;;;;6271744;28;20339;-71
2023/06/21 04:19:36;;;;;;;;;;;22.00;58.60;;;;;;6272012;28;19912;-72
2023/06/21 04:22:38;;;;;;;;;;;22.00;58.60;;;;;;6265549;28;20004;-71
2023/06/21 04:25:38;;;;;;;;;;;22.00;58.60;;;;;;6270771;28;20326;-72
2023/06/21 04:28:40;;;;;;;;;;;22.00;58.60;;;;;;6272204;28;19913;-72
2023/06/21 04:31:40;;;;;;;;;;;22.00;58.60;;;;;;6271489;28;19913;-71
2023/06/21 04:34:43;;;;;;;;;;;22.00;58.60;;;;;;6271714;28;19909;-72
2023/06/21 04:37:45;;;;;;;;;;;22.00;58.60;;;;;;6271119;28;19909;-71
2023/06/21 04:40:45;;;;;;;;;;;22.00;58.60;;;;;;6271268;28;20019;-72
2023/06/21 04:43:46;;;;;;;;;;;22.00;58.60;;;;;;6270599;28;20019;-71
2023/06/21 04:46:46;;;;;;;;;;;22.00;58.60;;;;;;6271160;28;20341;-71
2023/06/21 04:49:47;;;;;;;;;;;22.00;58.60;;;;;;6271324;28;20306;-72
2023/06/21 04:52:48;;;;;;;;;;;22.00;58.70;;;;;;6271143;28;19998;-72
2023/06/21 04:55:49;;;;;;;;;;;22.00;58.60;;;;;;6270923;28;19961;-72
2023/06/21 04:58:49;;;;;;;;;;;22.00;58.70;;;;;;6270491;28;19909;-71
2023/06/21 05:01:51;;;;;;;;;;;22.00;58.60;;;;;;6260745;28;19921;-71
2023/06/21 05:04:51;;;;;;;;;;;22.00;58.70;;;;;;6270466;28;20387;-72
2023/06/21 05:07:52;;;;;;;;;;;22.00;58.60;;;;;;6270760;28;19915;-72
2023/06/21 05:10:52;;;;;;;;;;;22.00;58.60;;;;;;6269318;28;20412;-71
2023/06/21 05:13:53;;;;;;;;;;;22.00;58.70;;;;;;6270983;28;19909;-72
2023/06/21 05:16:53;;;;;;;;;;;22.00;58.70;;;;;;6268398;28;20267;-72
2023/06/21 05:19:54;;;;;;;;;;;22.00;58.70;;;;;;6268393;28;19917;-72
2023/06/21 05:22:54;;;;;;;;;;;22.00;58.70;;;;;;6269843;28;19921;-72
2023/06/21 05:25:55;;;;;;;;;;;22.00;58.70;;;;;;6268384;28;19909;-73
2023/06/21 05:28:55;;;;;;;;;;;22.00;58.70;;;;;;6270479;28;19919;-71
2023/06/21 05:31:56;;;;;;;;;;;22.00;59.40;;;;;;6263668;28;20367;-72
2023/06/21 05:34:56;;;;;;;;;;;22.00;58.70;;;;;;6270014;28;19919;-72
2023/06/21 05:37:57;;;;;;;;;;;22.00;58.70;;;;;;6270200;28;19920;-72
2023/06/21 05:40:57;;;;;;;;;;;22.00;58.70;;;;;;6269444;28;20070;-72
2023/06/21 05:43:58;;;;;;;;;;;22.00;58.70;;;;;;6270188;28;19936;-71
2023/06/21 05:46:58;;;;;;;;;;;22.00;58.70;;;;;;6270423;28;19923;-72
2023/06/21 05:49:59;;;;;;;;;;;22.00;58.70;;;;;;6269532;28;20329;-72
2023/06/21 05:53:00;;;;;;;;;;;22.00;59.40;;;;;;6265761;28;19920;-72
2023/06/21 05:56:00;;;;;;;;;;;22.00;58.70;;;;;;6269769;28;19912;-72
2023/06/21 05:59:01;;;;;;;;;;;22.00;58.70;;;;;;6268394;28;20059;-72
2023/06/21 06:02:02;;;;;;;;;;;22.00;58.70;;;;;;6266540;28;19967;-72
2023/06/21 06:05:03;;;;;;;;;;;22.00;58.80;;;;;;6271781;28;19913;-72
2023/06/21 06:08:03;;;;;;;;;;;22.00;58.70;;;;;;6265768;28;19959;-72
2023/06/21 06:11:04;;;;;;;;;;;22.00;58.80;;;;;;6270059;28;19912;-72
2023/06/21 06:14:04;;;;;;;;;;;21.90;58.70;;;;;;6272048;28;19912;-72
2023/06/21 06:17:05;;;;;;;;;;;21.90;58.70;;;;;;6271054;28;20531;-72
2023/06/21 06:20:06;;;;;;;;;;;22.00;58.80;;;;;;6271125;28;20359;-72
2023/06/21 06:23:08;;;;;;;;;;;22.00;58.80;;;;;;6270259;28;19928;-72
2023/06/21 06:26:09;;;;;;;;;;;22.00;58.80;;;;;;6243957;28;19917;-72
2023/06/21 06:29:10;;;;;;;;;;;21.90;58.70;;;;;;6254336;28;20436;-71
2023/06/21 06:32:10;;;;;;;;;;;21.90;58.70;;;;;;6269460;28;19912;-72
2023/06/21 06:35:11;;;;;;;;;;;22.00;58.80;;;;;;6269387;28;19921;-72
2023/06/21 06:38:11;;;;;;;;;;;22.00;58.80;;;;;;6269123;28;20003;-72
2023/06/21 06:41:12;;;;;;;;;;;22.00;58.80;;;;;;6267892;28;19920;-72
2023/06/21 06:44:12;;;;;;;;;;;22.00;58.80;;;;;;6269743;28;19913;-72
2023/06/21 06:47:13;;;;;;;;;;;22.00;58.80;;;;;;6271075;28;19967;-72
2023/06/21 06:50:14;;;;;;;;;;;22.00;58.80;;;;;;6271591;28;19921;-72
2023/06/21 06:53:14;;;;;;;;;;;22.00;58.80;;;;;;6269499;28;19913;-72
2023/06/21 06:56:15;;;;;;;;;;;21.90;58.70;;;;;;6266744;28;19976;-72
2023/06/21 06:59:15;;;;;;;;;;;22.00;58.90;;;;;;6271176;28;19958;-71
2023/06/21 07:02:16;;;;;;;;;;;22.00;58.90;;;;;;6269497;28;19979;-72
2023/06/21 07:05:16;;;;;;;;;;;22.00;59.50;;;;;;6270714;28;19920;-72
2023/06/21 07:08:17;;;;;;;;;;;21.90;58.80;;;;;;6270072;28;19913;-72
2023/06/21 07:11:17;;;;;;;;;;;22.00;59.50;;;;;;6269666;28;19913;-71
2023/06/21 07:14:18;;;;;;;;;;;21.90;58.80;;;;;;6271078;28;19921;-72
2023/06/21 07:17:23;;;;;;;;;;;22.00;58.90;;;;;;6270528;28;20433;-72
2023/06/21 07:20:24;;;;;;;;;;;22.00;58.90;;;;;;6270861;28;20404;-71
2023/06/21 07:23:27;;;;;;;;;;;22.00;58.90;;;;;;6270159;28;19917;-72
2023/06/21 07:26:27;;;;;;;;;;;21.90;58.70;;;;;;6270727;28;19920;-72
2023/06/21 07:29:28;;;;;;;;;;;22.00;58.80;;;;;;6271271;28;19938;-72
2023/06/21 07:32:28;;;;;;;;;;;22.00;58.90;;;;;;6268815;28;19916;-71
2023/06/21 07:35:29;;;;;;;;;;;22.00;58.90;;;;;;6275502;28;20295;-72
2023/06/21 07:38:29;;;;;;;;;;;21.90;58.80;;;;;;6273642;28;19913;-72
2023/06/21 07:41:30;;;;;;;;;;;21.90;58.80;;;;;;6275364;28;19928;-72
2023/06/21 07:44:31;;;;;;;;;;;22.00;58.90;;;;;;6271389;28;19913;-72
2023/06/21 07:47:32;;;;;;;;;;;22.00;58.90;;;;;;6273425;28;19913;-72
2023/06/21 07:50:32;;;;;;;;;;;22.00;58.90;;;;;;6274881;28;19920;-72
2023/06/21 07:53:33;;;;;;;;;;;22.00;58.90;;;;;;6275165;28;19924;-71
2023/06/21 07:56:33;;;;;;;;;;;22.00;58.90;;;;;;6270891;28;20007;-72
2023/06/21 07:59:34;;;;;;;;;;;21.90;58.80;;;;;;6275167;28;19913;-72
2023/06/21 08:02:35;;;;;;;;;;;22.00;58.90;;;;;;6274607;28;19967;-72
2023/06/21 08:05:35;;;;;;;;;;;21.90;58.80;;;;;;6270978;28;20314;-72
2023/06/21 08:08:36;;;;;;;;;;;22.00;58.90;;;;;;6274872;28;19947;-72
2023/06/21 08:11:36;;;;;;;;;;;22.00;58.90;;;;;;6272499;28;19913;-72
2023/06/21 08:14:37;;;;;;;;;;;22.00;58.90;;;;;;6272528;28;19928;-73
2023/06/21 08:17:37;;;;;;;;;;;22.00;58.90;;;;;;6274296;28;20027;-72
2023/06/21 08:20:40;;;;;;;;;;;22.00;59.00;;;;;;6273842;28;19913;-71
2023/06/21 08:23:41;;;;;;;;;;;21.90;58.90;;;;;;6272628;28;20003;-73
2023/06/21 08:26:41;;;;;;;;;;;22.00;59.00;;;;;;6274281;28;19920;-72
2023/06/21 08:29:42;;;;;;;;;;;21.90;58.90;;;;;;6274792;28;19913;-72
2023/06/21 08:32:42;;;;;;;;;;;21.90;58.90;;;;;;6273180;28;19936;-72
2023/06/21 08:35:43;;;;;;;;;;;22.00;59.00;;;;;;6272703;28;19913;-72
2023/06/21 08:38:45;;;;;;;;;;;22.00;59.00;;;;;;6273844;28;19923;-72
2023/06/21 08:41:46;;;;;;;;;;;22.00;59.00;;;;;;6273388;28;19921;-72
2023/06/21 08:44:46;;;;;;;;;;;22.00;59.00;;;;;;6272476;28;19913;-72
2023/06/21 08:47:48;;;;;;;;;;;22.00;59.00;;;;;;6272000;28;19912;-72
2023/06/21 08:50:49;;;;;;;;;;;22.00;59.00;;;;;;6273259;28;19921;-72
2023/06/21 08:53:50;;;;;;;;;;;22.00;59.00;;;;;;6273649;28;19913;-72
2023/06/21 08:56:57;;;;;;;;;;;22.00;59.00;;;;;;6273427;28;19971;-72
2023/06/21 09:00:01;;;;;;;;;;;22.00;59.00;;;;;;6271344;28;19971;-72
2023/06/21 09:03:28;;;;;;;;;;;21.90;58.90;;;;;;6270353;28;19920;-72
2023/06/21 09:06:29;;;;;;;;;;;22.00;59.00;;;;;;6271669;28;19923;-72
2023/06/21 09:09:30;;;;;;;;;;;22.00;59.00;;;;;;6273605;28;19913;-72
2023/06/21 09:12:31;;;;;;;;;;;22.00;59.00;;;;;;6254960;28;19920;-71
2023/06/21 09:15:32;;;;;;;;;;;21.90;58.90;;;;;;6282134;28;19916;-72
2023/06/21 09:18:37;;;;;;;;;;;21.90;58.90;;;;;;6272267;28;20021;-72
2023/06/21 09:21:38;;;;;;;;;;;22.00;59.00;;;;;;6271504;28;19931;-72
2023/06/21 09:24:39;;;;;;;;;;;22.00;59.00;;;;;;6285948;28;19913;-71
2023/06/21 09:27:39;;;;;;;;;;;21.90;58.90;;;;;;6272019;28;19924;-71
2023/06/21 09:30:41;;;;;;;;;;;21.90;58.90;;;;;;6272511;28;19964;-73
2023/06/21 09:33:42;;;;;;;;;;;22.00;59.00;;;;;;6271781;28;19920;-71
2023/06/21 09:36:43;;;;;;;;;;;22.00;59.00;;;;;;6262361;28;19959;-72
2023/06/21 09:39:53;;;;;;;;;;;21.90;58.90;;;;;;6271167;28;20298;-71
2023/06/21 09:42:54;;;;;;;;;;;22.00;59.00;;;;;;6271421;28;19924;-72
2023/06/21 09:46:03;;;;;;;;;;;22.00;59.00;;;;;;6270013;28;20333;-72
2023/06/21 09:49:10;;;;;;;;;;;22.00;59.00;;;;;;6270982;28;19920;-72
2023/06/21 09:52:10;;;;;;;;;;;22.00;59.00;;;;;;6271735;28;19913;-72
2023/06/21 09:55:14;;;;;;;;;;;21.90;59.00;;;;;;6271153;28;20390;-72
2023/06/21 09:58:15;;;;;;;;;;;22.00;59.00;;;;;;6271517;28;19920;-72
2023/06/21 10:01:16;;;;;;;;;;;22.00;59.10;;;;;;6271848;28;19960;-72
2023/06/21 10:04:17;;;;;;;;;;;22.00;59.00;;;;;;6271354;28;19974;-72
2023/06/21 10:07:19;;;;;;;;;;;22.00;59.10;;;;;;6271020;28;19967;-72
2023/06/21 10:10:20;;;;;;;;;;;21.90;59.00;;;;;;6260937;28;19947;-72
2023/06/21 10:13:31;;;;;;;;;;;22.00;59.10;;;;;;6270791;28;19919;-72
2023/06/21 10:16:33;;;;;;;;;;;22.00;59.10;;;;;;6271597;28;19913;-72
2023/06/21 10:19:34;;;;;;;;;;;22.00;59.10;;;;;;6269978;28;20346;-72
2023/06/21 10:22:37;;;;;;;;;;;22.00;59.10;;;;;;6271661;28;19975;-72
2023/06/21 10:25:40;;;;;;;;;;;22.00;59.10;;;;;;6280846;28;19917;-72
2023/06/21 10:28:42;;;;;;;;;;;21.90;59.00;;;;;;6280294;28;19913;-71
2023/06/21 10:31:44;;;;;;;;;;;22.00;59.10;;;;;;6294913;28;20236;-72
2023/06/21 10:35:02;;;;;;;;;;;22.00;59.20;;;;;;6274203;28;19920;-72
2023/06/21 10:38:03;;;;;;;;;;;22.00;59.20;;;;;;6270171;28;19943;-72
2023/06/21 10:41:04;;;;;;;;;;;22.00;59.20;;;;;;6269650;28;19921;-71
2023/06/21 10:44:05;;;;;;;;;;;22.00;59.20;;;;;;6269411;28;19962;-71
2023/06/21 10:47:06;;;;;;;;;;;22.00;59.20;;;;;;6270251;28;19959;-71
2023/06/21 10:50:07;;;;;;;;;;;22.00;59.20;;;;;;6269783;28;20280;-72
2023/06/21 10:53:08;;;;;;;;;;;22.00;59.20;;;;;;6269740;28;19913;-72
2023/06/21 10:56:12;;;;;;;;;;;22.00;59.20;;;;;;6269109;28;19913;-72
2023/06/21 10:59:13;;;;;;;;;;;22.00;59.20;;;;;;6268843;28;19913;-71
2023/06/21 11:02:14;;;;;;;;;;;22.00;59.20;;;;;;6270061;28;19921;-72
2023/06/21 11:05:20;;;;;;;;;;;22.00;59.20;;;;;;6272020;28;19913;-72
2023/06/21 11:08:31;;;;;;;;;;;22.00;59.20;;;;;;6275617;28;20356;-72
2023/06/21 11:11:32;;;;;;;;;;;22.00;59.20;;;;;;6275012;28;19928;-73
2023/06/21 11:14:34;;;;;;;;;;;22.00;59.20;;;;;;6275095;28;20402;-71
2023/06/21 11:17:35;;;;;;;;;;;22.00;59.20;;;;;;6261236;28;19975;-71
2023/06/21 11:20:45;;;;;;;;;;;22.00;59.30;;;;;;6265038;28;19913;-71
2023/06/21 11:23:51;;;;;;;;;;;22.00;59.20;;;;;;6274031;28;19921;-71
2023/06/21 11:26:52;;;;;;;;;;;22.00;59.30;;;;;;6273752;28;19913;-72
2023/06/21 11:31:38;;;;;;;1.95;1.58;;;22.00;61.10;;;;;;6316068;28;20381;-73
2023/06/21 11:34:56;;;;;;;2.05;1.77;;;22.10;59.50;;;;;;6317428;28;20036;-73
2023/06/21 11:37:57;;;;;;;1.95;1.75;;;22.00;59.50;;;;;;6342328;28;20024;-73
2023/06/21 11:40:58;;;;;;;1.80;1.67;;;22.00;59.50;;;;;;6319100;28;20024;-73
2023/06/21 11:43:58;;;;;;;1.88;1.67;;;22.00;59.50;;;;;;6316965;28;20024;-73
2023/06/21 11:47:16;;;;;;;1.58;1.48;;;22.00;59.50;;;;;;6316487;28;20039;-73
2023/06/21 11:50:17;;;;;;;1.95;1.42;;;22.00;59.50;;;;;;6316076;28;20036;-73
2023/06/21 11:53:23;;;;;;;1.90;1.45;;;22.00;59.50;;;;;;6316719;28;20035;-73
2023/06/21 11:56:31;;;;;;;1.90;1.77;;;21.90;59.40;;;;;;6316139;28;20025;-73
2023/06/21 11:59:34;;;;;;;1.85;1.60;;;22.00;59.50;;;;;;6311654;28;20069;-73
2023/06/21 12:02:34;;;;;;;1.70;1.60;;;22.00;59.50;;;;;;6315951;28;20029;-73
2023/06/21 12:05:49;;;;;;;1.92;1.73;;;22.00;59.50;;;;;;6315473;28;20016;-74
2023/06/21 12:08:56;;;;;;;2.42;1.95;;;22.00;59.50;;;;;;6315625;28;20063;-73
2023/06/21 12:12:00;;;;;;;2.72;1.90;;;22.00;59.50;;;;;;6301279;28;20025;-73
2023/06/21 12:15:00;;;;;;;2.80;1.90;;;22.00;59.50;;;;;;6300047;28;20070;-73
2023/06/21 12:18:05;;;;;;;2.45;1.67;;;22.00;59.50;;;;;;6314964;28;20021;-74
2023/06/21 12:21:09;;;;;;;2.17;1.83;;;21.90;59.40;;;;;;6315148;28;20032;-73
2023/06/21 12:24:09;;;;;;;1.98;1.77;;;22.00;59.50;;;;;;6315687;28;20555;-73
2023/06/21 12:27:14;;;;;;;3.15;1.80;;;22.00;59.50;;;;;;6296548;28;20028;-73
2023/06/21 12:30:14;;;;;;;8.00;1.93;;;22.00;59.50;;;;;;6306813;28;20048;-73
2023/06/21 12:33:15;;;;;;;2.90;1.70;;;22.00;60.60;;;;;;6313802;28;20304;-75
2023/06/21 12:36:21;;;;;;;4.55;2.10;;;22.00;59.80;;;;;;6314408;28;20029;-74
2023/06/21 12:39:22;;;;;;;3.88;2.10;;;22.00;59.80;;;;;;6314778;28;20036;-74
2023/06/21 12:42:29;;;;;;;6.20;1.95;;;22.10;59.70;;;;;;6300645;28;20115;-74
2023/06/21 12:45:30;;;;;;;3.20;1.95;;;22.10;59.80;;;;;;6298418;28;20028;-74
2023/06/21 12:48:31;;;;;;;3.97;1.60;;;22.10;60.00;;;;;;6297504;28;20060;-74
2023/06/21 12:51:37;;;;;;;3.47;2.00;;;22.10;60.00;;;;;;6292243;28;20032;-74
2023/06/21 12:54:52;;;;;;;6.50;2.10;;;22.10;61.00;;;;;;6298413;28;20039;-74
2023/06/21 12:57:52;;;;;;;3.17;2.05;;;22.20;60.10;;;;;;6297759;28;20032;-74
2023/06/21 13:00:53;;;;;;;3.22;2.17;;;22.20;60.20;;;;;;6297437;28;20433;-74
2023/06/21 13:03:57;;;;;;;4.03;2.03;;;22.20;60.00;;;;;;6297872;28;20149;-74
2023/06/21 13:06:58;;;;;;;3.05;2.15;;;22.20;59.90;;;;;;6289305;28;20047;-74
2023/06/21 13:09:59;;;;;;;4.28;2.00;;;22.20;59.70;;;;;;6297858;28;20036;-74
2023/06/21 13:12:59;;;;;;;4.10;2.20;;;22.10;59.70;;;;;;6297759;28;20021;-74
2023/06/21 13:16:00;;;;;;;3.63;2.10;;;22.10;59.80;;;;;;6297105;28;20116;-74
2023/06/21 13:19:01;;;;;;;3.80;2.42;;;22.10;59.90;;;;;;6297884;28;20021;-75
2023/06/21 13:22:01;;;;;;;3.53;2.47;;;22.10;59.90;;;;;;6296818;28;20036;-76
2023/06/21 13:25:03;;;;;;;2.83;1.80;;;22.10;59.90;;;;;;6296790;28;20111;-74
2023/06/21 13:28:04;;;;;;;4.13;2.42;;;22.10;59.90;;;;;;6296593;28;20498;-74
2023/06/21 13:31:04;;;;;;;3.28;2.00;;;22.10;59.90;;;;;;6297254;28;20077;-74
2023/06/21 13:34:05;;;;;;;2.67;1.98;;;22.00;59.70;;;;;;6296707;28;20111;-75
2023/06/21 13:37:06;;;;;;;4.15;2.30;;;22.10;59.80;;;;;;6296649;28;20654;-75
2023/06/21 13:40:08;;;;;;;2.97;2.00;;;22.10;59.80;;;;;;6296867;28;20064;-74
2023/06/21 13:43:09;;;;;;;3.47;2.08;;;22.00;59.70;;;;;;6297455;28;20128;-74
2023/06/21 13:46:10;;;;;;;3.40;2.20;;;22.00;59.70;;;;;;6296794;28;20390;-74
2023/06/21 13:49:11;;;;;;;3.95;2.30;;;22.00;59.70;;;;;;6296819;28;20035;-74
2023/06/21 13:52:11;;;;;;;3.08;1.90;;;22.10;59.80;;;;;;6295929;28;20029;-75
2023/06/21 13:55:15;;;;;;;3.97;2.20;;;22.10;59.80;;;;;;6296738;28;20028;-74
2023/06/21 13:58:15;;;;;;;3.15;2.05;;;22.00;59.90;;;;;;6296698;28;20028;-74
2023/06/21 14:01:16;;;;;;;2.55;2.08;;;22.00;59.70;;;;;;6293329;28;20074;-74
2023/06/21 14:04:17;;;;;;;3.55;2.30;;;22.00;59.60;;;;;;6316913;28;20032;-75
2023/06/21 14:07:17;;;;;;;3.05;2.17;;;22.00;59.70;;;;;;6296948;28;20066;-73
2023/06/21 14:10:18;;;;;;;4.45;2.13;;;22.00;59.90;;;;;;6321303;28;20044;-74
2023/06/21 14:13:19;;;;;;;3.22;2.10;;;22.10;60.00;;;;;;6299755;28;20032;-74
2023/06/21 14:16:20;;;;;;;3.60;2.15;;;22.10;60.10;;;;;;6295228;28;20020;-74
2023/06/21 14:19:20;;;;;;;3.47;2.05;;;22.10;60.00;;;;;;6295745;28;20056;-74
2023/06/21 14:22:21;;;;;;;4.03;2.40;;;22.10;60.10;;;;;;6295311;28;20025;-74
2023/06/21 14:25:22;;;;;;;3.25;2.15;;;22.10;60.10;;;;;;6295890;28;20546;-74
2023/06/21 14:28:22;;;;;;;3.67;2.13;;;22.10;60.00;;;;;;6294400;28;20025;-74
2023/06/21 14:31:23;;;;;;;4.22;2.05;;;22.10;60.00;;;;;;6295907;28;20037;-76
2023/06/21 14:34:23;;;;;;;2.97;2.35;;;22.10;60.00;;;;;;6296420;28;20429;-74
2023/06/21 14:37:25;;;;;;;3.35;2.22;;;22.10;60.00;;;;;;6295364;28;20119;-74
2023/06/21 14:40:26;;;;;;;3.25;2.00;;;22.00;59.90;;;;;;6295444;28;20039;-75
2023/06/21 14:43:26;;;;;;;3.85;2.30;;;22.00;59.90;;;;;;6295350;28;20050;-74
2023/06/21 14:46:27;;;;;;;2.70;2.00;;;22.00;60.70;;;;;;6295797;28;20032;-74
2023/06/21 14:49:28;;;;;;;3.50;2.15;;;22.00;59.80;;;;;;6309836;28;20093;-74
2023/06/21 14:52:30;;;;;;;4.32;2.10;;;22.00;59.80;;;;;;6304669;28;20086;-74
2023/06/21 14:55:31;;;;;;;3.50;2.00;;;22.00;59.80;;;;;;6291297;28;20042;-74
2023/06/21 14:58:32;;;;;;;3.47;2.17;;;22.00;59.80;;;;;;6295095;28;20032;-74
2023/06/21 15:01:32;;;;;;;4.28;2.13;;;22.00;59.90;;;;;;6295404;28;20527;-74
2023/06/21 15:04:33;;;;;;;3.83;2.10;;;22.00;59.80;;;;;;6308269;28;20131;-74
2023/06/21 15:07:36;;;;;;;3.95;2.17;;;22.00;59.80;;;;;;6283112;28;20050;-74
2023/06/21 15:10:36;;;;;;;3.80;1.88;;;22.00;59.80;;;;;;6294871;28;20056;-74
2023/06/21 15:13:38;;;;;;;3.72;2.03;;;22.00;59.80;;;;;;6294415;28;20493;-74
2023/06/21 15:16:43;;;;;;;4.32;2.13;;;22.00;59.80;;;;;;6286680;28;20398;-74
2023/06/21 15:19:44;;;;;;;4.28;2.00;;;22.00;59.80;;;;;;6294458;28;20035;-75
2023/06/21 15:22:44;;;;;;;2.58;2.10;;;22.00;59.80;;;;;;6294619;28;20020;-74
2023/06/21 15:25:45;;;;;;;2.78;2.20;;;22.00;59.80;;;;;;6289196;28;20036;-74
2023/06/21 15:28:46;;;;;;;3.97;1.92;;;22.00;59.80;;;;;;6293982;28;20456;-74
2023/06/21 15:31:46;;;;;;;3.53;1.98;;;22.00;59.80;;;;;;6295171;28;20051;-74
2023/06/21 15:34:47;;;;;;;3.33;2.20;;;22.00;59.80;;;;;;6290021;28;20475;-74
2023/06/21 15:37:48;;;;;;;2.78;2.05;;;22.00;59.80;;;;;;6294442;28;20039;-75
2023/06/21 15:40:49;;;;;;;3.10;2.05;;;22.00;59.80;;;;;;6289719;28;20494;-74
2023/06/21 15:43:50;;;;;;;4.07;1.90;;;22.00;59.80;;;;;;6294754;28;20363;-74
2023/06/21 15:46:50;;;;;;;3.47;2.03;;;22.00;59.80;;;;;;6314713;28;20097;-76
2023/06/21 15:49:51;;;;;;;2.95;2.05;;;22.00;59.80;;;;;;6298610;28;20110;-74
2023/06/21 15:52:52;;;;;;;3.28;2.30;;;22.00;59.90;;;;;;6295094;28;20142;-74
2023/06/21 15:55:53;;;;;;;3.10;2.00;;;22.00;59.80;;;;;;6294425;28;20028;-73
2023/06/21 15:58:53;;;;;;;2.55;1.85;;;22.00;59.80;;;;;;6275820;28;20539;-74
2023/06/21 16:01:54;;;;;;;2.60;1.88;;;22.00;59.80;;;;;;6294173;28;20029;-74
2023/06/21 16:04:55;;;;;;;3.17;1.92;;;22.00;59.80;;;;;;6294438;28;20111;-74
2023/06/21 16:07:55;;;;;;;3.45;2.08;;;22.00;59.80;;;;;;6293232;28;20070;-74
2023/06/21 16:10:56;;;;;;;2.90;1.90;;;22.00;60.30;;;;;;6293844;28;20039;-74
2023/06/21 16:13:56;;;;;;;2.92;1.80;;;22.00;59.90;;;;;;6294664;28;20111;-74
2023/06/21 16:16:57;;;;;;;4.40;2.55;;;22.00;60.00;;;;;;6293086;28;20121;-74
2023/06/21 16:19:58;;;;;;;2.42;1.83;;;22.00;60.00;;;;;;6292275;28;20048;-74
2023/06/21 16:22:58;;;;;;;2.63;2.00;;;22.00;60.00;;;;;;6294940;28;20040;-74
2023/06/21 16:25:59;;;;;;;2.20;1.77;;;22.00;60.00;;;;;;6307675;28;20166;-74
2023/06/21 16:28:59;;;;;;;3.38;2.17;;;22.00;59.90;;;;;;6312137;28;20036;-74
2023/06/21 16:32:00;;;;;;;3.33;2.08;;;22.00;59.90;;;;;;6296069;28;20074;-75
2023/06/21 16:35:01;;;;;;;3.00;1.80;;;22.00;59.90;;;;;;6290647;28;20486;-76
2023/06/21 16:38:02;;;;;;;2.88;1.90;;;22.00;60.00;;;;;;6296227;28;20026;-75
2023/06/21 16:41:03;;;;;;;1.90;1.60;;;22.00;59.90;;;;;;6295966;28;20024;-75
2023/06/21 16:44:03;;;;;;;3.25;2.10;;;22.00;59.90;;;;;;6296581;28;20021;-74
2023/06/21 16:47:04;;;;;;;2.65;1.98;;;22.00;59.90;;;;;;6295487;28;20467;-74
2023/06/21 16:50:05;;;;;;;2.58;2.00;;;22.00;59.90;;;;;;6296122;28;20071;-73
2023/06/21 16:53:07;;;;;;;7.13;2.00;;;22.00;61.40;;;;;;6296408;28;20025;-74
2023/06/21 16:56:07;;;;;;;3.15;2.20;;;22.00;60.70;;;;;;6296370;28;20020;-74
2023/06/21 16:59:08;;;;;;;2.95;1.98;;;22.10;61.00;;;;;;6295693;28;20052;-74